SHT2P EGLL-EGCC
Flight info
| Callsign | SHT2P |
|---|---|
| Flight time | 0h 31m |
| Altitude | 18000 |
| Route | ULTIB T420 ELVOS |
| Aircraft | A320/M-SDE3FGHIRWY/LB1 |
Departure
| Time | 2026-05-05 00:50 |
|---|---|
| Airport | London Heathrow Airport (EGLL) |
Arrival
| Time | 2026-05-05 01:21 |
|---|---|
| Airport | Manchester Airport (EGCC) |
| Time | Latitude | Longitude | Altitude | Speed | Heading |
|---|---|---|---|---|---|
| 2026-05-05 00:17 | 51.47232 | -0.48585 | 86 ft | 0 kts | 270° |
| 2026-05-05 00:42 | 51.47233 | -0.48550 | 88 ft | 4 kts | 270° |
| 2026-05-05 00:42 | 51.47233 | -0.48515 | 89 ft | 3 kts | 268° |
| 2026-05-05 00:43 | 51.47240 | -0.48481 | 89 ft | 4 kts | 210° |
| 2026-05-05 00:43 | 51.47262 | -0.48473 | 90 ft | 4 kts | 180° |
| 2026-05-05 00:43 | 51.47272 | -0.48473 | 86 ft | 0 kts | 180° |
| 2026-05-05 00:46 | 51.47260 | -0.48473 | 90 ft | 4 kts | 180° |
| 2026-05-05 00:46 | 51.47226 | -0.48473 | 88 ft | 6 kts | 180° |
| 2026-05-05 00:46 | 51.47176 | -0.48473 | 86 ft | 8 kts | 180° |
| 2026-05-05 00:47 | 51.47113 | -0.48473 | 86 ft | 10 kts | 180° |
| 2026-05-05 00:47 | 51.47038 | -0.48471 | 86 ft | 11 kts | 180° |
| 2026-05-05 00:47 | 51.46960 | -0.48470 | 88 ft | 10 kts | 180° |
| 2026-05-05 00:47 | 51.46883 | -0.48469 | 88 ft | 11 kts | 179° |
| 2026-05-05 00:48 | 51.46800 | -0.48469 | 86 ft | 13 kts | 180° |
| 2026-05-05 00:48 | 51.46705 | -0.48469 | 86 ft | 15 kts | 179° |
| 2026-05-05 00:48 | 51.46597 | -0.48467 | 86 ft | 16 kts | 179° |
| 2026-05-05 00:48 | 51.46503 | -0.48466 | 86 ft | 10 kts | 180° |
| 2026-05-05 00:49 | 51.46479 | -0.48432 | 89 ft | 5 kts | 96° |
| 2026-05-05 00:49 | 51.46479 | -0.48372 | 88 ft | 7 kts | 89° |
| 2026-05-05 00:49 | 51.46480 | -0.47979 | 87 ft | 70 kts | 90° |
| 2026-05-05 00:49 | 51.46484 | -0.46851 | 90 ft | 127 kts | 90° |
| 2026-05-05 00:50 | 51.46491 | -0.45210 | 125 ft | 165 kts | 89° |
| 2026-05-05 00:50 | 51.46501 | -0.43441 | 844 ft | 157 kts | 87° |
| 2026-05-05 00:50 | 51.46553 | -0.41670 | 1385 ft | 165 kts | 76° |
| 2026-05-05 00:50 | 51.47144 | -0.40011 | 1634 ft | 186 kts | 42° |
| 2026-05-05 00:51 | 51.48129 | -0.38466 | 1941 ft | 211 kts | 46° |
| 2026-05-05 00:51 | 51.49152 | -0.36583 | 2373 ft | 236 kts | 49° |
| 2026-05-05 00:51 | 51.50238 | -0.34484 | 3004 ft | 249 kts | 50° |
| 2026-05-05 00:51 | 51.51346 | -0.32314 | 3895 ft | 254 kts | 50° |
| 2026-05-05 00:52 | 51.52336 | -0.29923 | 4709 ft | 262 kts | 68° |
| 2026-05-05 00:52 | 51.52939 | -0.27115 | 5511 ft | 269 kts | 70° |
| 2026-05-05 00:52 | 51.53847 | -0.24471 | 5891 ft | 274 kts | 47° |
| 2026-05-05 00:52 | 51.55401 | -0.22740 | 6034 ft | 275 kts | 18° |
| 2026-05-05 00:53 | 51.57294 | -0.22411 | 6792 ft | 277 kts | 352° |
| 2026-05-05 00:53 | 51.59171 | -0.23204 | 7593 ft | 282 kts | 341° |
| 2026-05-05 00:53 | 51.61095 | -0.23981 | 8391 ft | 287 kts | 342° |
| 2026-05-05 00:53 | 51.62950 | -0.25159 | 9220 ft | 288 kts | 331° |
| 2026-05-05 00:54 | 51.64729 | -0.26683 | 10048 ft | 291 kts | 329° |
| 2026-05-05 00:54 | 51.66529 | -0.28335 | 10446 ft | 309 kts | 328° |
| 2026-05-05 00:54 | 51.68448 | -0.30169 | 10657 ft | 331 kts | 327° |
| 2026-05-05 00:54 | 51.70459 | -0.32121 | 11125 ft | 341 kts | 327° |
| 2026-05-05 00:55 | 51.72503 | -0.34116 | 11799 ft | 345 kts | 327° |
| 2026-05-05 00:55 | 51.74566 | -0.36130 | 12498 ft | 348 kts | 326° |
| 2026-05-05 00:55 | 51.76648 | -0.38157 | 13196 ft | 351 kts | 328° |
| 2026-05-05 00:55 | 51.78748 | -0.40197 | 13851 ft | 354 kts | 327° |
| 2026-05-05 00:56 | 51.80870 | -0.42252 | 14451 ft | 358 kts | 327° |
| 2026-05-05 00:56 | 51.83017 | -0.44331 | 15030 ft | 361 kts | 327° |
| 2026-05-05 00:56 | 51.85183 | -0.46431 | 15589 ft | 366 kts | 327° |
| 2026-05-05 00:56 | 51.87381 | -0.48565 | 16123 ft | 370 kts | 327° |
| 2026-05-05 00:57 | 51.89595 | -0.50720 | 16718 ft | 374 kts | 327° |
| 2026-05-05 00:57 | 51.91834 | -0.52904 | 17285 ft | 378 kts | 327° |
| 2026-05-05 00:57 | 51.94103 | -0.55114 | 17823 ft | 383 kts | 327° |
| 2026-05-05 00:57 | 51.96397 | -0.57348 | 18001 ft | 386 kts | 327° |
| 2026-05-05 00:58 | 51.98712 | -0.59606 | 18035 ft | 397 kts | 327° |
| 2026-05-05 00:58 | 52.01085 | -0.61924 | 18033 ft | 399 kts | 327° |
| 2026-05-05 00:58 | 52.03465 | -0.64255 | 18056 ft | 400 kts | 327° |
| 2026-05-05 00:58 | 52.05843 | -0.66586 | 18058 ft | 399 kts | 327° |
| 2026-05-05 00:59 | 52.08217 | -0.68912 | 18057 ft | 399 kts | 327° |
| 2026-05-05 00:59 | 52.10596 | -0.71247 | 18059 ft | 398 kts | 327° |
| 2026-05-05 00:59 | 52.12965 | -0.73579 | 18057 ft | 398 kts | 327° |
| 2026-05-05 00:59 | 52.15335 | -0.75920 | 18053 ft | 398 kts | 327° |
| 2026-05-05 01:00 | 52.17702 | -0.78265 | 18057 ft | 398 kts | 327° |
| 2026-05-05 01:00 | 52.20061 | -0.80603 | 18058 ft | 398 kts | 327° |
| 2026-05-05 01:00 | 52.22432 | -0.82956 | 18053 ft | 399 kts | 327° |
| 2026-05-05 01:00 | 52.24802 | -0.85301 | 18060 ft | 399 kts | 327° |
| 2026-05-05 01:01 | 52.27177 | -0.87651 | 18057 ft | 399 kts | 327° |
| 2026-05-05 01:01 | 52.29551 | -0.90005 | 18067 ft | 399 kts | 327° |
| 2026-05-05 01:01 | 52.31924 | -0.92364 | 18065 ft | 399 kts | 327° |
| 2026-05-05 01:01 | 52.34288 | -0.94722 | 18067 ft | 399 kts | 327° |
| 2026-05-05 01:02 | 52.36660 | -0.97090 | 18067 ft | 399 kts | 327° |
| 2026-05-05 01:02 | 52.39024 | -0.99447 | 18083 ft | 399 kts | 327° |
| 2026-05-05 01:02 | 52.41393 | -1.01818 | 18075 ft | 399 kts | 327° |
| 2026-05-05 01:02 | 52.43756 | -1.04190 | 18059 ft | 399 kts | 327° |
| 2026-05-05 01:03 | 52.46121 | -1.06567 | 18053 ft | 399 kts | 327° |
| 2026-05-05 01:03 | 52.48489 | -1.08944 | 18049 ft | 399 kts | 327° |
| 2026-05-05 01:03 | 52.50854 | -1.11318 | 18044 ft | 399 kts | 327° |
| 2026-05-05 01:03 | 52.52421 | -1.12897 | 18041 ft | 399 kts | 327° |
| 2026-05-05 01:04 | 52.54780 | -1.15278 | 18037 ft | 398 kts | 327° |
| 2026-05-05 01:04 | 52.59508 | -1.20042 | 18029 ft | 398 kts | 327° |
| 2026-05-05 01:04 | 52.61870 | -1.22420 | 18026 ft | 398 kts | 327° |
| 2026-05-05 01:05 | 52.64229 | -1.24801 | 18022 ft | 398 kts | 327° |
| 2026-05-05 01:05 | 52.66591 | -1.27194 | 18021 ft | 398 kts | 327° |
| 2026-05-05 01:05 | 52.68948 | -1.29590 | 18021 ft | 398 kts | 327° |
| 2026-05-05 01:05 | 52.71299 | -1.31980 | 18019 ft | 396 kts | 327° |
| 2026-05-05 01:06 | 52.73607 | -1.34323 | 18005 ft | 382 kts | 327° |
| 2026-05-05 01:06 | 52.75825 | -1.36575 | 17852 ft | 368 kts | 327° |
| 2026-05-05 01:06 | 52.77985 | -1.38770 | 17521 ft | 360 kts | 327° |
| 2026-05-05 01:06 | 52.80105 | -1.40933 | 17094 ft | 356 kts | 327° |
| 2026-05-05 01:07 | 52.82201 | -1.43080 | 16639 ft | 353 kts | 327° |
| 2026-05-05 01:07 | 52.84276 | -1.45210 | 16168 ft | 350 kts | 327° |
| 2026-05-05 01:07 | 52.86339 | -1.47328 | 15740 ft | 347 kts | 327° |
| 2026-05-05 01:07 | 52.88381 | -1.49426 | 15306 ft | 345 kts | 327° |
| 2026-05-05 01:08 | 52.90410 | -1.51512 | 14869 ft | 342 kts | 327° |
| 2026-05-05 01:08 | 52.92427 | -1.53587 | 14429 ft | 340 kts | 327° |
| 2026-05-05 01:08 | 52.94425 | -1.55646 | 14007 ft | 338 kts | 327° |
| 2026-05-05 01:08 | 52.96418 | -1.57701 | 13560 ft | 335 kts | 327° |
| 2026-05-05 01:09 | 52.98392 | -1.59739 | 13104 ft | 333 kts | 327° |
| 2026-05-05 01:09 | 53.00347 | -1.61761 | 12661 ft | 330 kts | 327° |
| 2026-05-05 01:09 | 53.02288 | -1.63771 | 12237 ft | 327 kts | 327° |
| 2026-05-05 01:09 | 53.04195 | -1.65726 | 11812 ft | 325 kts | 328° |
| 2026-05-05 01:10 | 53.06234 | -1.67428 | 11379 ft | 323 kts | 335° |
| 2026-05-05 01:10 | 53.08291 | -1.68921 | 10959 ft | 322 kts | 335° |
| 2026-05-05 01:10 | 53.10338 | -1.70392 | 10558 ft | 319 kts | 335° |
| 2026-05-05 01:10 | 53.12331 | -1.71825 | 10365 ft | 311 kts | 335° |
| 2026-05-05 01:11 | 53.14278 | -1.73224 | 10244 ft | 300 kts | 335° |
| 2026-05-05 01:11 | 53.16126 | -1.74551 | 9967 ft | 287 kts | 335° |
| 2026-05-05 01:11 | 53.17948 | -1.75862 | 9390 ft | 283 kts | 335° |
| 2026-05-05 01:11 | 53.19739 | -1.77157 | 8794 ft | 279 kts | 335° |
| 2026-05-05 01:12 | 53.21513 | -1.78446 | 8206 ft | 276 kts | 335° |
| 2026-05-05 01:12 | 53.23264 | -1.79726 | 7627 ft | 273 kts | 335° |
| 2026-05-05 01:12 | 53.24997 | -1.80995 | 7083 ft | 270 kts | 335° |
| 2026-05-05 01:12 | 53.26701 | -1.82245 | 6530 ft | 267 kts | 335° |
| 2026-05-05 01:13 | 53.28388 | -1.83490 | 5960 ft | 264 kts | 335° |
| 2026-05-05 01:13 | 53.30056 | -1.84729 | 5386 ft | 261 kts | 335° |
| 2026-05-05 01:13 | 53.31695 | -1.85954 | 5052 ft | 256 kts | 335° |
| 2026-05-05 01:13 | 53.33338 | -1.87185 | 5000 ft | 259 kts | 335° |
| 2026-05-05 01:14 | 53.34985 | -1.88418 | 5005 ft | 260 kts | 335° |
| 2026-05-05 01:14 | 53.36635 | -1.89655 | 5002 ft | 259 kts | 335° |
| 2026-05-05 01:14 | 53.38283 | -1.90891 | 4995 ft | 259 kts | 335° |
| 2026-05-05 01:14 | 53.39918 | -1.92118 | 4709 ft | 257 kts | 335° |
| 2026-05-05 01:15 | 53.41554 | -1.93345 | 4372 ft | 257 kts | 335° |
| 2026-05-05 01:15 | 53.43183 | -1.94565 | 4041 ft | 256 kts | 335° |
| 2026-05-05 01:15 | 53.44805 | -1.95776 | 3712 ft | 255 kts | 335° |
| 2026-05-05 01:15 | 53.46420 | -1.96977 | 3502 ft | 253 kts | 335° |
| 2026-05-05 01:16 | 53.48044 | -1.98189 | 3499 ft | 255 kts | 333° |
| 2026-05-05 01:16 | 53.49423 | -2.00001 | 3499 ft | 254 kts | 306° |
| 2026-05-05 01:16 | 53.50087 | -2.02715 | 3500 ft | 255 kts | 276° |
| 2026-05-05 01:16 | 53.49859 | -2.05617 | 3499 ft | 248 kts | 247° |
| 2026-05-05 01:17 | 53.48814 | -2.07812 | 3449 ft | 241 kts | 213° |
| 2026-05-05 01:17 | 53.47292 | -2.08936 | 3196 ft | 237 kts | 202° |
| 2026-05-05 01:17 | 53.45795 | -2.09906 | 2930 ft | 224 kts | 203° |
| 2026-05-05 01:17 | 53.44373 | -2.10827 | 2675 ft | 213 kts | 202° |
| 2026-05-05 01:18 | 53.43119 | -2.11966 | 2441 ft | 201 kts | 221° |
| 2026-05-05 01:18 | 53.42156 | -2.13529 | 2229 ft | 187 kts | 230° |
| 2026-05-05 01:18 | 53.41327 | -2.15159 | 1949 ft | 176 kts | 233° |
| 2026-05-05 01:18 | 53.40574 | -2.16706 | 1717 ft | 167 kts | 233° |
| 2026-05-05 01:19 | 53.39871 | -2.18161 | 1506 ft | 152 kts | 234° |
| 2026-05-05 01:19 | 53.39227 | -2.19500 | 1295 ft | 144 kts | 235° |
| 2026-05-05 01:19 | 53.38608 | -2.20779 | 1081 ft | 139 kts | 233° |
| 2026-05-05 01:19 | 53.38008 | -2.22028 | 863 ft | 136 kts | 233° |
| 2026-05-05 01:20 | 53.37420 | -2.23259 | 683 ft | 136 kts | 232° |
| 2026-05-05 01:20 | 53.36827 | -2.24492 | 488 ft | 135 kts | 232° |
| 2026-05-05 01:20 | 53.36231 | -2.25726 | 331 ft | 135 kts | 230° |
| 2026-05-05 01:20 | 53.35668 | -2.26895 | 275 ft | 119 kts | 231° |
| 2026-05-05 01:21 | 53.35207 | -2.27844 | 237 ft | 84 kts | 231° |
| 2026-05-05 01:21 | 53.34986 | -2.28340 | 233 ft | 37 kts | 245° |
| 2026-05-05 01:21 | 53.34945 | -2.28627 | 229 ft | 11 kts | 262° |
| 2026-05-05 01:21 | 53.34965 | -2.28740 | 229 ft | 11 kts | 322° |
| 2026-05-05 01:22 | 53.35017 | -2.28735 | 227 ft | 7 kts | 39° |
| 2026-05-05 01:22 | 53.35051 | -2.28673 | 229 ft | 7 kts | 50° |
| 2026-05-05 01:22 | 53.35085 | -2.28604 | 229 ft | 9 kts | 51° |
| 2026-05-05 01:22 | 53.35131 | -2.28506 | 227 ft | 13 kts | 51° |
| 2026-05-05 01:23 | 53.35187 | -2.28391 | 229 ft | 11 kts | 51° |
| 2026-05-05 01:23 | 53.35233 | -2.28296 | 233 ft | 11 kts | 51° |
| 2026-05-05 01:23 | 53.35289 | -2.28192 | 233 ft | 13 kts | 46° |
| 2026-05-05 01:23 | 53.35348 | -2.28094 | 236 ft | 12 kts | 44° |
| 2026-05-05 01:24 | 53.35410 | -2.27994 | 237 ft | 13 kts | 44° |
| 2026-05-05 01:24 | 53.35475 | -2.27922 | 239 ft | 10 kts | 12° |
| 2026-05-05 01:24 | 53.35553 | -2.27908 | 237 ft | 14 kts | 6° |
| 2026-05-05 01:24 | 53.35646 | -2.27891 | 242 ft | 13 kts | 5° |
| 2026-05-05 01:25 | 53.35729 | -2.27877 | 246 ft | 11 kts | 6° |
| 2026-05-05 01:25 | 53.35800 | -2.27865 | 250 ft | 9 kts | 5° |
| 2026-05-05 01:25 | 53.35858 | -2.27855 | 253 ft | 8 kts | 6° |
| 2026-05-05 01:25 | 53.35905 | -2.27847 | 255 ft | 7 kts | 4° |
| 2026-05-05 01:26 | 53.35963 | -2.27864 | 255 ft | 10 kts | 332° |
| 2026-05-05 01:26 | 53.36026 | -2.27952 | 255 ft | 13 kts | 319° |
| 2026-05-05 01:26 | 53.36103 | -2.28064 | 255 ft | 16 kts | 318° |
| 2026-05-05 01:26 | 53.36186 | -2.28203 | 255 ft | 18 kts | 313° |
| 2026-05-05 01:27 | 53.36264 | -2.28334 | 255 ft | 14 kts | 315° |
| 2026-05-05 01:27 | 53.36332 | -2.28448 | 255 ft | 11 kts | 317° |
| 2026-05-05 01:27 | 53.36381 | -2.28478 | 255 ft | 8 kts | 354° |
| 2026-05-05 01:27 | 53.36439 | -2.28519 | 255 ft | 10 kts | 317° |
| 2026-05-05 01:28 | 53.36495 | -2.28615 | 255 ft | 13 kts | 315° |
| 2026-05-05 01:28 | 53.36559 | -2.28722 | 255 ft | 13 kts | 313° |
| 2026-05-05 01:28 | 53.36602 | -2.28836 | 255 ft | 11 kts | 302° |
| 2026-05-05 01:28 | 53.36659 | -2.28937 | 255 ft | 13 kts | 315° |
| 2026-05-05 01:29 | 53.36726 | -2.29051 | 255 ft | 12 kts | 315° |
| 2026-05-05 01:29 | 53.36775 | -2.29067 | 255 ft | 8 kts | 16° |
| 2026-05-05 01:29 | 53.36828 | -2.29037 | 255 ft | 8 kts | 21° |
| 2026-05-05 01:29 | 53.36875 | -2.28972 | 255 ft | 10 kts | 45° |
| 2026-05-05 01:30 | 53.36927 | -2.28886 | 255 ft | 10 kts | 45° |
| 2026-05-05 01:30 | 53.36970 | -2.28814 | 255 ft | 6 kts | 45° |
| 2026-05-05 01:30 | 53.36985 | -2.28765 | 255 ft | 4 kts | 99° |
| 2026-05-05 01:30 | 53.36960 | -2.28716 | 255 ft | 5 kts | 134° |
| 2026-05-05 01:31 | 53.36951 | -2.28702 | 255 ft | 0 kts | 135° |
| 2026-05-05 01:31 | 53.36948 | -2.28697 | 255 ft | 1 kts | 135° |
| 2026-05-05 01:31 | 53.36948 | -2.28696 | 255 ft | 0 kts | 135° |